createdAt,value
2017-12-02T00:00:27.268Z,23.60
2017-12-02T00:05:47.479Z,22.27
2017-12-02T00:08:13.900Z,20.75
2017-12-02T00:10:40.537Z,22.27
2017-12-02T00:13:07.066Z,20.10
2017-12-02T00:15:33.643Z,21.48
2017-12-02T00:18:00.185Z,24.63
2017-12-02T00:20:26.873Z,25.58
2017-12-02T00:22:54.116Z,27.60
2017-12-02T00:25:20.934Z,23.23
2017-12-02T00:27:47.565Z,24.35
2017-12-02T00:30:14.095Z,25.42
2017-12-02T00:32:40.940Z,28.45
2017-12-02T00:35:07.773Z,25.12
2017-12-02T00:37:34.963Z,28.23
2017-12-02T00:40:01.709Z,25.77
2017-12-02T00:42:28.439Z,28.55
2017-12-02T00:44:55.052Z,25.33
2017-12-02T00:47:22.413Z,26.65
2017-12-02T00:49:49.612Z,23.62
2017-12-02T00:52:16.200Z,24.98
2017-12-02T00:54:44.765Z,22.58
2017-12-02T00:57:11.503Z,25.52
2017-12-02T00:59:38.900Z,25.08
2017-12-02T01:02:06.112Z,23.60
2017-12-02T01:04:32.675Z,25.23
2017-12-02T01:06:59.126Z,25.77
2017-12-02T01:09:27.315Z,23.67
2017-12-02T01:11:54.474Z,25.42
2017-12-02T01:14:21.695Z,24.10
2017-12-02T01:16:48.232Z,23.92
2017-12-02T01:19:14.713Z,28.42
2017-12-02T01:21:41.918Z,22.70
2017-12-02T01:24:08.418Z,21.27
2017-12-02T01:26:35.753Z,25.80
2017-12-02T01:29:02.181Z,22.90
2017-12-02T01:31:28.858Z,21.75
2017-12-02T01:33:56.080Z,27.40
2017-12-02T01:36:22.524Z,27.08
2017-12-02T01:38:49.116Z,27.87
2017-12-02T01:41:15.536Z,25.48
2017-12-02T01:43:42.725Z,28.50
2017-12-02T01:46:09.427Z,27.08
2017-12-02T01:48:36.717Z,25.25
2017-12-02T01:51:03.115Z,25.85
2017-12-02T01:53:29.711Z,26.20
2017-12-02T01:55:56.204Z,23.48
2017-12-02T01:58:23.382Z,26.00
2017-12-02T02:00:49.819Z,25.83
2017-12-02T02:03:16.263Z,26.55
2017-12-02T02:05:42.907Z,31.83
2017-12-02T02:08:09.331Z,25.10
2017-12-02T02:10:35.755Z,27.15
2017-12-02T02:13:03.146Z,27.20
2017-12-02T02:15:29.588Z,25.80
2017-12-02T02:17:56.230Z,31.55
2017-12-02T02:20:22.700Z,31.45
2017-12-02T02:22:49.258Z,30.95
2017-12-02T02:25:15.709Z,28.75
2017-12-02T02:27:42.900Z,26.40
2017-12-02T02:30:09.495Z,22.98
2017-12-02T02:32:35.915Z,26.40
2017-12-02T02:35:02.363Z,24.27
2017-12-02T02:37:28.812Z,24.73
2017-12-02T02:39:55.455Z,33.03
2017-12-02T02:42:22.652Z,26.40
2017-12-02T02:44:49.136Z,28.15
2017-12-02T02:47:15.560Z,26.48
2017-12-02T02:49:41.972Z,26.23
2017-12-02T02:52:08.616Z,29.20
2017-12-02T02:54:35.025Z,30.10
2017-12-02T02:57:02.202Z,31.67
2017-12-02T02:59:28.782Z,26.87
2017-12-02T03:01:55.193Z,30.70
2017-12-02T03:04:21.727Z,29.85
2017-12-02T03:06:48.149Z,29.95
2017-12-02T03:09:15.330Z,29.65
2017-12-02T03:11:41.743Z,36.88
2017-12-02T03:14:08.919Z,35.03
2017-12-02T03:16:35.391Z,29.48
2017-12-02T03:19:01.812Z,29.27
2017-12-02T03:21:28.267Z,26.50
2017-12-02T03:23:54.695Z,31.17
2017-12-02T03:26:21.324Z,34.38
2017-12-02T03:28:48.770Z,35.30
2017-12-02T03:31:15.195Z,32.20
2017-12-02T03:33:42.392Z,31.20
2017-12-02T03:36:08.800Z,27.67
2017-12-02T03:38:35.230Z,31.95
2017-12-02T03:41:02.413Z,38.90
2017-12-02T03:43:28.847Z,36.08
2017-12-02T03:45:55.324Z,30.90
2017-12-02T03:48:21.729Z,32.78
2017-12-02T03:50:48.202Z,34.33
2017-12-02T03:53:14.765Z,39.97
2017-12-02T03:55:41.179Z,39.90
2017-12-02T03:58:07.798Z,44.10
2017-12-02T04:00:34.240Z,42.17
2017-12-02T04:03:00.672Z,43.97
2017-12-02T04:05:27.099Z,43.60
2017-12-02T04:07:53.531Z,42.08
2017-12-02T04:10:30.136Z,38.13
2017-12-02T04:12:56.524Z,42.80
2017-12-02T04:15:23.772Z,41.58
2017-12-02T04:17:51.058Z,37.75
2017-12-02T04:20:17.475Z,31.60
2017-12-02T04:22:43.992Z,33.70
2017-12-02T04:25:10.393Z,29.10
2017-12-02T04:27:36.840Z,31.67
2017-12-02T04:30:03.276Z,30.67
2017-12-02T04:32:29.699Z,32.53
2017-12-02T04:34:56.175Z,33.13
2017-12-02T04:37:22.723Z,31.37
2017-12-02T04:39:49.198Z,34.70
2017-12-02T04:42:15.642Z,33.47
2017-12-02T04:44:42.261Z,30.83
2017-12-02T04:47:09.483Z,36.85
2017-12-02T04:49:36.071Z,39.10
2017-12-02T04:52:03.284Z,37.42
2017-12-02T04:54:29.673Z,37.35
2017-12-02T04:56:56.124Z,34.35
2017-12-02T04:59:22.628Z,32.50
2017-12-02T05:01:49.014Z,24.20
2017-12-02T05:04:15.470Z,35.42
2017-12-02T05:06:41.879Z,32.78
2017-12-02T05:09:08.266Z,29.65
2017-12-02T05:11:34.724Z,28.83
2017-12-02T05:14:01.894Z,29.27
2017-12-02T05:16:28.427Z,30.95
2017-12-02T05:18:55.694Z,35.45
2017-12-02T05:21:22.112Z,31.37
2017-12-02T05:23:49.293Z,35.38
2017-12-02T05:26:15.704Z,36.08
2017-12-02T05:28:42.866Z,23.67
2017-12-02T05:31:10.025Z,22.10
2017-12-02T05:33:37.195Z,32.55
2017-12-02T05:36:03.655Z,31.40
2017-12-02T05:38:30.083Z,30.02
2017-12-02T05:40:56.510Z,32.42
2017-12-02T05:43:22.994Z,32.00
2017-12-02T05:45:49.400Z,33.00
2017-12-02T05:48:15.812Z,31.70
2017-12-02T05:50:42.986Z,33.25
2017-12-02T05:53:09.461Z,29.50
2017-12-02T05:55:35.882Z,30.67
2017-12-02T05:58:02.307Z,29.15
2017-12-02T06:00:28.790Z,35.83
2017-12-02T06:02:55.221Z,31.33
2017-12-02T06:05:21.631Z,28.00
2017-12-02T06:07:48.207Z,12.93
2017-12-02T06:10:14.700Z,25.10
2017-12-02T06:12:41.143Z,25.45
2017-12-02T06:15:07.738Z,28.05
2017-12-02T06:17:34.377Z,20.88
2017-12-02T06:20:00.808Z,20.12
2017-12-02T06:22:27.253Z,24.73
2017-12-02T06:24:54.455Z,23.05
2017-12-02T06:27:21.046Z,16.20
2017-12-02T06:29:47.490Z,25.73
2017-12-02T06:32:13.955Z,29.42
2017-12-02T06:34:41.131Z,23.60
2017-12-02T06:37:07.623Z,18.37
2017-12-02T06:39:34.105Z,18.67
2017-12-02T06:42:00.579Z,21.45
2017-12-02T06:44:27.015Z,24.00
2017-12-02T06:46:53.443Z,25.52
2017-12-02T06:49:19.871Z,17.85
2017-12-02T06:51:46.437Z,21.52
2017-12-02T06:54:12.906Z,18.50
2017-12-02T06:56:40.158Z,20.42
2017-12-02T06:59:06.570Z,22.40
2017-12-02T07:01:33.172Z,24.80
2017-12-02T07:04:00.329Z,23.35
2017-12-02T07:06:27.537Z,21.35
2017-12-02T07:08:54.005Z,29.73
2017-12-02T07:11:21.225Z,25.58
2017-12-02T07:13:47.688Z,23.30
2017-12-02T07:16:15.660Z,24.50
2017-12-02T07:18:42.086Z,23.23
2017-12-02T07:21:09.276Z,21.73
2017-12-02T07:23:36.672Z,25.30
2017-12-02T07:26:03.330Z,25.85
2017-12-02T07:28:29.773Z,28.05
2017-12-02T07:30:56.304Z,22.80
2017-12-02T07:33:22.759Z,25.62
2017-12-02T07:35:49.193Z,24.77
2017-12-02T07:38:15.670Z,32.30
2017-12-02T07:40:42.856Z,24.80
2017-12-02T07:43:09.316Z,27.10
2017-12-02T07:45:35.743Z,27.05
2017-12-02T07:48:02.169Z,27.23
2017-12-02T07:50:28.630Z,22.20
2017-12-02T07:52:55.276Z,28.20
2017-12-02T07:55:21.719Z,33.20
2017-12-02T07:57:48.209Z,27.62
2017-12-02T08:00:15.484Z,36.65
2017-12-02T08:02:41.941Z,25.88
2017-12-02T08:05:08.446Z,32.80
2017-12-02T08:07:50.565Z,9.40
2017-12-02T08:10:17.030Z,12.37
2017-12-02T08:12:43.495Z,20.98
2017-12-02T08:15:09.908Z,16.02
2017-12-02T08:17:36.347Z,20.48
2017-12-02T08:20:02.808Z,24.52
2017-12-02T08:22:29.262Z,24.77
2017-12-02T08:24:56.424Z,27.90
2017-12-02T08:27:23.616Z,25.58
2017-12-02T08:29:50.055Z,29.42
2017-12-02T08:32:16.736Z,11.70
2017-12-02T08:34:43.215Z,13.52
2017-12-02T08:37:09.625Z,16.10
2017-12-02T08:39:36.105Z,12.93
2017-12-02T08:42:02.516Z,17.80
2017-12-02T08:44:29.712Z,24.48
2017-12-02T08:46:56.171Z,20.23
2017-12-02T08:49:22.582Z,28.87
2017-12-02T08:51:49.062Z,25.15
2017-12-02T08:54:15.507Z,17.65
2017-12-02T08:56:41.981Z,24.30
2017-12-02T08:59:09.145Z,14.02
2017-12-02T09:01:35.659Z,23.17
2017-12-02T09:04:02.843Z,16.25
2017-12-02T09:06:29.258Z,23.60
2017-12-02T09:08:56.518Z,19.87
2017-12-02T09:11:23.692Z,30.92
2017-12-02T09:13:50.136Z,15.18
2017-12-02T09:16:16.702Z,29.48
2017-12-02T09:18:43.118Z,29.50
2017-12-02T09:21:09.551Z,28.33
2017-12-02T09:23:36.004Z,24.50
2017-12-02T09:26:02.461Z,26.12
2017-12-02T09:28:28.968Z,24.08
2017-12-02T09:30:55.567Z,21.90
2017-12-02T09:33:21.971Z,31.80
2017-12-02T09:35:48.509Z,23.45
2017-12-02T09:38:14.942Z,18.87
2017-12-02T09:40:41.379Z,24.25
2017-12-02T09:43:07.910Z,23.27
2017-12-02T09:45:34.401Z,25.12
2017-12-02T09:48:00.813Z,18.65
2017-12-02T09:50:27.326Z,22.40
2017-12-02T09:52:53.768Z,20.12
2017-12-02T09:55:20.207Z,19.52
2017-12-02T09:57:46.622Z,22.67
2017-12-02T10:00:13.768Z,12.37
2017-12-02T10:02:40.981Z,16.67
2017-12-02T10:05:07.456Z,16.87
2017-12-02T10:07:33.924Z,23.83
2017-12-02T10:10:00.462Z,22.95
2017-12-02T10:12:27.866Z,19.73
2017-12-02T10:14:54.287Z,16.20
2017-12-02T10:17:20.827Z,19.50
2017-12-02T10:19:47.271Z,15.95
2017-12-02T10:22:13.772Z,15.55
2017-12-02T10:24:41.007Z,17.25
2017-12-02T10:27:07.536Z,28.98
2017-12-02T10:29:33.996Z,29.08
2017-12-02T10:32:01.225Z,11.80
2017-12-02T10:34:27.675Z,19.70
2017-12-02T10:36:54.312Z,17.62
2017-12-02T10:39:20.764Z,11.40
2017-12-02T10:41:47.181Z,21.20
2017-12-02T10:44:13.723Z,20.65
2017-12-02T10:46:43.708Z,12.37
2017-12-02T10:49:10.164Z,28.42
2017-12-02T10:51:36.576Z,21.08
2017-12-02T10:54:03.172Z,22.87
2017-12-02T10:56:29.603Z,26.52
2017-12-02T10:58:56.284Z,25.52
2017-12-02T11:01:23.656Z,24.35
2017-12-02T11:03:50.384Z,27.45
2017-12-02T11:06:17.549Z,28.75
2017-12-02T11:08:44.763Z,30.95
2017-12-02T11:11:11.363Z,24.83
2017-12-02T11:13:37.799Z,31.02
2017-12-02T11:16:04.339Z,25.40
2017-12-02T11:18:30.788Z,20.48
2017-12-02T11:20:57.241Z,27.65
2017-12-02T11:23:23.783Z,22.77
2017-12-02T11:25:50.295Z,21.05
2017-12-02T11:28:20.356Z,15.05
2017-12-02T11:30:47.002Z,26.98
2017-12-02T11:33:13.472Z,25.20
2017-12-02T11:35:40.684Z,21.62
2017-12-02T11:38:07.151Z,22.77
2017-12-02T11:40:33.607Z,21.05
2017-12-02T11:43:00.806Z,21.35
2017-12-02T11:45:27.240Z,16.37
2017-12-02T11:47:53.706Z,18.42
2017-12-02T11:50:20.136Z,14.60
2017-12-02T11:52:46.613Z,22.45
2017-12-02T11:55:13.093Z,19.23
2017-12-02T11:57:39.528Z,27.35
2017-12-02T12:00:06.048Z,21.70
2017-12-02T12:02:33.331Z,14.25
2017-12-02T12:04:59.775Z,26.83
2017-12-02T12:07:26.211Z,25.73
2017-12-02T12:09:52.682Z,24.60
2017-12-02T12:12:19.174Z,23.50
2017-12-02T12:14:45.700Z,18.87
2017-12-02T12:17:12.910Z,22.62
2017-12-02T12:19:39.355Z,22.05
2017-12-02T12:22:05.969Z,23.20
2017-12-02T12:24:32.535Z,16.30
2017-12-02T12:26:58.966Z,25.15
2017-12-02T12:29:25.563Z,29.50
2017-12-02T12:31:52.838Z,27.52
2017-12-02T12:34:19.336Z,20.60
2017-12-02T12:36:45.802Z,22.60
2017-12-02T12:39:12.288Z,21.25
2017-12-02T12:41:38.819Z,24.63
2017-12-02T12:44:05.290Z,25.75
2017-12-02T12:46:31.824Z,17.25
2017-12-02T12:48:58.339Z,24.98
2017-12-02T12:51:25.104Z,21.83
2017-12-02T12:53:51.654Z,19.58
2017-12-02T12:56:18.095Z,24.90
2017-12-02T12:58:44.900Z,22.75
2017-12-02T13:01:11.367Z,30.55
2017-12-02T13:03:37.814Z,27.33
2017-12-02T13:06:04.267Z,26.98
2017-12-02T13:08:30.747Z,28.55
2017-12-02T13:10:57.197Z,17.02
2017-12-02T13:13:23.816Z,23.20
2017-12-02T13:15:50.315Z,16.48
2017-12-02T13:18:16.780Z,30.10
2017-12-02T13:20:43.269Z,31.15
2017-12-02T13:23:09.748Z,27.95
2017-12-02T13:25:39.141Z,29.00
2017-12-02T13:28:05.692Z,18.52
2017-12-02T13:30:32.167Z,17.58
2017-12-02T13:32:58.666Z,27.60
2017-12-02T13:35:25.252Z,28.65
2017-12-02T13:37:51.850Z,34.05
2017-12-02T13:40:18.534Z,26.15
2017-12-02T13:42:45.106Z,21.25
2017-12-02T13:45:11.619Z,27.27
2017-12-02T13:47:38.078Z,15.20
2017-12-02T13:50:04.586Z,7.97
2017-12-02T13:52:31.772Z,15.52
2017-12-02T13:54:58.236Z,24.00
2017-12-02T13:57:24.734Z,18.73
2017-12-02T13:59:51.387Z,17.92
2017-12-02T14:02:17.875Z,13.57
2017-12-02T14:04:44.556Z,12.18
2017-12-02T14:07:11.736Z,13.70
2017-12-02T14:09:38.227Z,23.52
2017-12-02T14:12:04.723Z,14.52
2017-12-02T14:14:31.150Z,25.23
2017-12-02T14:16:57.622Z,27.40
2017-12-02T14:19:24.104Z,23.15
2017-12-02T14:21:51.351Z,23.52
2017-12-02T14:24:18.543Z,25.55
2017-12-02T14:26:45.093Z,24.17
2017-12-02T14:29:11.970Z,25.52
2017-12-02T14:31:38.849Z,23.10
2017-12-02T14:34:06.345Z,13.13
2017-12-02T14:36:32.885Z,26.60
2017-12-02T14:38:59.357Z,26.37
2017-12-02T14:41:25.994Z,23.92
2017-12-02T14:43:52.463Z,21.42
2017-12-02T14:46:19.193Z,10.95
2017-12-02T14:48:45.751Z,21.40
2017-12-02T14:51:12.388Z,22.27
2017-12-02T14:53:39.004Z,23.02
2017-12-02T14:56:05.419Z,26.60
2017-12-02T14:58:32.261Z,27.02
2017-12-02T15:00:58.731Z,23.15
2017-12-02T15:03:25.394Z,24.52
2017-12-02T15:05:51.843Z,32.88
2017-12-02T15:08:18.358Z,25.85
2017-12-02T15:10:45.027Z,22.98
2017-12-02T15:13:11.465Z,26.02
2017-12-02T15:15:37.972Z,27.33
2017-12-02T15:18:04.438Z,24.20
2017-12-02T15:20:30.930Z,32.10
2017-12-02T15:22:57.395Z,36.20
2017-12-02T15:25:30.769Z,26.05
2017-12-02T15:27:57.244Z,18.70
2017-12-02T15:30:23.801Z,16.52
2017-12-02T15:32:50.396Z,20.20
2017-12-02T15:35:16.854Z,19.95
2017-12-02T15:37:43.492Z,11.52
2017-12-02T15:40:10.001Z,12.07
2017-12-02T15:42:36.706Z,19.45
2017-12-02T15:45:03.250Z,16.27
2017-12-02T15:47:29.792Z,20.00
2017-12-02T15:49:56.575Z,15.68
2017-12-02T15:52:23.110Z,17.35
2017-12-02T15:54:49.567Z,7.57
2017-12-02T15:57:16.035Z,18.00
2017-12-02T15:59:42.578Z,19.58
2017-12-02T16:02:09.064Z,26.75
2017-12-02T16:04:35.660Z,16.50
2017-12-02T16:07:02.186Z,29.67
2017-12-02T16:09:28.660Z,30.08
2017-12-02T16:11:56.024Z,29.55
2017-12-02T16:14:23.297Z,26.05
2017-12-02T16:16:50.551Z,23.75
2017-12-02T16:19:17.843Z,17.12
2017-12-02T16:21:44.304Z,16.92
2017-12-02T16:24:10.845Z,20.37
2017-12-02T16:26:37.306Z,22.92
2017-12-02T16:29:03.928Z,12.43
2017-12-02T16:31:30.483Z,17.12
2017-12-02T16:33:57.023Z,17.85
2017-12-02T16:36:23.471Z,27.67
2017-12-02T16:38:49.913Z,23.58
2017-12-02T16:41:48.342Z,18.60
2017-12-02T16:44:15.331Z,12.88
2017-12-02T16:46:42.847Z,13.62
2017-12-02T16:49:09.490Z,16.87
2017-12-02T16:51:35.954Z,20.55
2017-12-02T16:54:02.432Z,21.62
2017-12-02T16:56:29.665Z,14.20
2017-12-02T16:58:57.640Z,15.65
2017-12-02T17:01:24.118Z,18.75
2017-12-02T17:03:50.744Z,10.57
2017-12-02T17:06:17.973Z,8.48
2017-12-02T17:08:45.290Z,15.52
2017-12-02T17:11:11.745Z,9.38
2017-12-02T17:13:38.238Z,29.20
2017-12-02T17:16:05.649Z,23.70
2017-12-02T17:18:32.059Z,14.00
2017-12-02T17:20:58.491Z,13.95
2017-12-02T17:23:25.180Z,21.33
2017-12-02T17:25:51.842Z,23.48
2017-12-02T17:28:18.299Z,11.45
2017-12-02T17:30:45.464Z,10.68
2017-12-02T17:33:12.659Z,6.75
2017-12-02T17:35:39.084Z,18.98
2017-12-02T17:38:05.655Z,23.67
2017-12-02T17:40:32.139Z,22.02
2017-12-02T17:42:59.373Z,16.67
2017-12-02T17:45:26.974Z,13.45
2017-12-02T17:47:53.452Z,14.23
2017-12-02T17:50:19.978Z,15.95
2017-12-02T17:52:46.404Z,14.95
2017-12-02T17:55:13.068Z,20.40
2017-12-02T17:57:40.525Z,20.12
2017-12-02T18:00:06.969Z,10.32
2017-12-02T18:02:33.424Z,16.08
2017-12-02T18:04:59.917Z,16.95
2017-12-02T18:07:26.404Z,20.27
2017-12-02T18:09:52.853Z,19.90
2017-12-02T18:12:19.318Z,23.00
2017-12-02T18:14:46.537Z,21.67
2017-12-02T18:17:13.036Z,19.00
2017-12-02T18:19:39.488Z,18.17
2017-12-02T18:22:06.350Z,19.50
2017-12-02T18:24:32.785Z,24.15
2017-12-02T18:26:59.279Z,19.40
2017-12-02T18:29:26.476Z,18.05
2017-12-02T18:31:52.945Z,18.08
2017-12-02T18:34:19.462Z,22.25
2017-12-02T18:36:46.085Z,22.87
2017-12-02T18:39:12.749Z,18.75
2017-12-02T18:41:39.292Z,16.58
2017-12-02T18:44:06.510Z,20.00
2017-12-02T18:46:46.332Z,13.38
2017-12-02T18:49:12.976Z,14.65
2017-12-02T18:51:39.479Z,19.15
2017-12-02T18:54:05.950Z,20.62
2017-12-02T18:56:32.390Z,14.35
2017-12-02T18:58:58.926Z,19.98
2017-12-02T19:01:26.396Z,18.25
2017-12-02T19:03:55.291Z,21.98
2017-12-02T19:06:21.791Z,18.52
2017-12-02T19:08:48.378Z,21.73
2017-12-02T19:11:14.866Z,13.88
2017-12-02T19:13:41.462Z,14.77
2017-12-02T19:16:08.058Z,6.32
2017-12-02T19:18:34.757Z,13.45
2017-12-02T19:21:02.063Z,12.82
2017-12-02T19:23:28.594Z,12.65
2017-12-02T19:25:55.176Z,20.15
2017-12-02T19:28:21.734Z,6.15
2017-12-02T19:30:48.484Z,19.67
2017-12-02T19:33:14.977Z,16.85
2017-12-02T19:35:41.558Z,18.92
2017-12-02T19:38:08.200Z,18.67
2017-12-02T19:40:34.695Z,21.25
2017-12-02T19:43:01.435Z,29.90
2017-12-02T19:45:28.150Z,25.48
2017-12-02T19:47:55.645Z,28.40
2017-12-02T19:50:22.164Z,28.25
2017-12-02T19:52:49.427Z,32.90
2017-12-02T19:55:16.782Z,31.75
2017-12-02T19:57:43.476Z,30.90
2017-12-02T20:00:10.005Z,24.87
2017-12-02T20:02:36.599Z,20.83
2017-12-02T20:05:03.888Z,20.10
2017-12-02T20:07:30.444Z,24.98
2017-12-02T20:09:59.113Z,15.50
2017-12-02T20:12:25.616Z,30.02
2017-12-02T20:14:52.924Z,21.83
2017-12-02T20:17:19.576Z,24.15
2017-12-02T20:19:46.516Z,23.90
2017-12-02T20:22:13.113Z,32.38
2017-12-02T20:24:40.440Z,30.25
2017-12-02T20:27:07.057Z,28.52
2017-12-02T20:29:33.698Z,30.60
2017-12-02T20:32:01.254Z,25.83
2017-12-02T20:34:27.862Z,24.02
2017-12-02T20:36:55.182Z,26.35
2017-12-02T20:39:21.751Z,25.80
2017-12-02T20:41:48.278Z,23.55
2017-12-02T20:44:14.779Z,25.48
2017-12-02T20:46:41.315Z,25.83
2017-12-02T20:49:07.874Z,25.12
2017-12-02T20:51:34.454Z,23.05
2017-12-02T20:54:01.306Z,20.40
2017-12-02T20:56:28.801Z,29.75
2017-12-02T20:58:55.391Z,27.62
2017-12-02T21:01:21.997Z,28.45
2017-12-02T21:03:48.880Z,20.73
2017-12-02T21:06:15.844Z,24.55
2017-12-02T21:08:43.489Z,25.40
2017-12-02T21:11:10.148Z,13.27
2017-12-02T21:13:37.266Z,23.38
2017-12-02T21:16:04.186Z,22.98
2017-12-02T21:18:37.868Z,25.67
2017-12-02T21:21:06.574Z,16.73
2017-12-02T21:23:33.974Z,25.05
2017-12-02T21:26:00.516Z,15.50
2017-12-02T21:28:27.120Z,21.75
2017-12-02T21:30:53.860Z,17.35
2017-12-02T21:33:21.113Z,8.20
2017-12-02T21:35:48.381Z,14.90
2017-12-02T21:38:15.758Z,23.10
2017-12-02T21:40:42.310Z,24.30
2017-12-02T21:43:08.902Z,24.10
2017-12-02T21:45:36.397Z,23.58
2017-12-02T21:48:03.003Z,16.00
2017-12-02T21:50:29.599Z,24.20
2017-12-02T21:52:56.280Z,11.45
2017-12-02T21:55:22.747Z,15.90
2017-12-02T21:57:49.426Z,10.73
2017-12-02T22:00:16.005Z,24.42
2017-12-02T22:02:42.518Z,18.27
2017-12-02T22:05:09.055Z,18.75
2017-12-02T22:07:35.741Z,11.45
2017-12-02T22:10:02.645Z,14.70
2017-12-02T22:12:29.356Z,17.45
2017-12-02T22:14:56.792Z,16.23
2017-12-02T22:17:24.831Z,19.80
2017-12-02T22:19:51.266Z,16.27
2017-12-02T22:22:17.774Z,20.75
2017-12-02T22:24:45.021Z,20.92
2017-12-02T22:27:11.503Z,18.15
2017-12-02T22:29:38.128Z,8.95
2017-12-02T22:32:04.647Z,16.55
2017-12-02T22:34:31.185Z,17.33
2017-12-02T22:36:58.495Z,10.75
2017-12-02T22:39:24.991Z,16.80
2017-12-02T22:41:52.241Z,18.08
2017-12-02T22:44:18.800Z,16.98
2017-12-02T22:46:46.050Z,15.52
2017-12-02T22:49:13.534Z,15.65
2017-12-02T22:51:40.070Z,21.62
2017-12-02T22:54:07.368Z,18.50
2017-12-02T22:56:34.082Z,20.45
2017-12-02T22:59:00.558Z,18.80
2017-12-02T23:01:27.201Z,18.10
2017-12-02T23:03:53.813Z,16.95
2017-12-02T23:06:20.662Z,13.95
2017-12-02T23:08:47.440Z,22.30
2017-12-02T23:11:13.912Z,16.05
2017-12-02T23:13:41.325Z,20.05
2017-12-02T23:16:07.975Z,20.37
2017-12-02T23:18:35.386Z,19.00
2017-12-02T23:21:02.816Z,17.42
2017-12-02T23:23:29.332Z,17.85
2017-12-02T23:25:55.809Z,19.58
2017-12-02T23:28:23.205Z,19.00
2017-12-02T23:30:49.707Z,19.37
2017-12-02T23:33:16.252Z,20.62
2017-12-02T23:35:42.938Z,21.20
2017-12-02T23:38:09.414Z,18.37
2017-12-02T23:40:36.186Z,16.85
2017-12-02T23:43:03.483Z,18.70
2017-12-02T23:45:30.004Z,18.52
2017-12-02T23:47:56.502Z,16.85
2017-12-02T23:50:22.959Z,21.50
2017-12-02T23:52:49.950Z,22.20
2017-12-02T23:55:17.381Z,22.02
2017-12-02T23:57:44.611Z,20.95
